Time;durP1;ratioP1;P1;durP2;ratioP2;P2;SDS_P1;SDS_P2;PMS_P1;PMS_P2;Temp;Humidity;BMP_temperature;BMP_pressure;BME280_temperature;BME280_humidity;BME280_pressure;Samples;Min_cycle;Max_cycle;Signal;HPM_P1;HPM_P2
2022/04/01 00:00:22;;;;;;;14.05;8.40;;;;;;;2.68;74.70;98131.63;4933383;29;20452;-77
2022/04/01 00:02:47;;;;;;;22.20;11.15;;;;;;;2.69;75.59;98130.72;4934292;29;20091;-77
2022/04/01 00:05:13;;;;;;;14.15;8.90;;;;;;;2.63;76.25;98120.69;4934490;29;20020;-76
2022/04/01 00:07:40;;;;;;;36.42;16.40;;;;;;;2.65;76.45;98130.91;4934368;29;20032;-76
2022/04/01 00:10:07;;;;;;;23.95;10.80;;;;;;;2.59;76.83;98124.28;4934512;29;20034;-76
2022/04/01 00:12:33;;;;;;;18.73;10.00;;;;;;;2.57;77.16;98128.66;4934059;29;20031;-77
2022/04/01 00:14:58;;;;;;;18.77;8.95;;;;;;;2.59;77.12;98118.31;4934592;29;20023;-77
2022/04/01 00:17:24;;;;;;;57.40;20.27;;;;;;;2.51;77.28;98116.03;4934334;29;20608;-77
2022/04/01 00:19:49;;;;;;;56.17;18.05;;;;;;;2.51;77.81;98118.59;4934278;29;20048;-77
2022/04/01 00:22:15;;;;;;;19.73;8.07;;;;;;;2.50;77.92;98115.19;4933098;29;20387;-76
2022/04/01 00:24:40;;;;;;;41.45;13.55;;;;;;;2.52;78.51;98117.69;4934058;29;20035;-76
2022/04/01 00:27:06;;;;;;;54.70;18.83;;;;;;;2.47;78.34;98110.16;4932966;29;20047;-76
2022/04/01 00:29:31;;;;;;;54.35;18.65;;;;;;;2.44;78.68;98119.72;4933043;29;20040;-77
2022/04/01 00:32:00;;;;;;;16.60;8.05;;;;;;;2.42;78.39;98136.94;4933341;29;20167;-76
2022/04/01 00:34:31;;;;;;;191.80;53.88;;;;;;;2.35;78.88;98118.34;4936673;29;20083;-77
2022/04/01 00:36:59;;;;;;;49.67;18.08;;;;;;;2.38;78.58;98131.06;4937811;29;20028;-76
2022/04/01 00:39:26;;;;;;;42.28;17.98;;;;;;;2.28;78.51;98108.38;4936349;29;20035;-76
2022/04/01 00:41:52;;;;;;;60.60;23.77;;;;;;;2.20;80.26;98124.91;4936311;29;20526;-76
2022/04/01 00:44:23;;;;;;;79.22;35.47;;;;;;;2.12;81.75;98116.66;4938044;29;20361;-76
2022/04/01 00:46:50;;;;;;;;;;;;;;;2.12;83.43;98133.78;4933725;29;20118;-76
2022/04/01 00:49:16;;;;;;;32.85;15.02;;;;;;;1.95;84.65;98131.84;4936379;29;20267;-76
2022/04/01 00:51:43;;;;;;;36.40;18.10;;;;;;;1.86;85.09;98129.59;4935934;29;20031;-76
2022/04/01 00:54:10;;;;;;;22.45;12.18;;;;;;;1.80;85.42;98135.78;4936096;29;20032;-76
2022/04/01 00:56:37;;;;;;;20.60;11.50;;;;;;;1.74;86.08;98130.88;4936059;29;20536;-77
2022/04/01 00:59:03;;;;;;;34.50;18.95;;;;;;;1.76;86.72;98129.06;4936209;29;20043;-77
2022/04/01 01:01:33;;;;;;;14.25;9.63;;;;;;;1.70;86.45;98121.59;4935990;29;20043;-77
2022/04/01 01:04:09;;;;;;;13.68;8.25;;;;;;;1.73;85.88;98130.03;4935980;29;20024;-76
2022/04/01 01:06:41;;;;;;;13.52;8.52;;;;;;;1.74;85.35;98129.13;4936909;29;20063;-76
2022/04/01 01:09:07;;;;;;;15.82;9.82;;;;;;;1.73;84.98;98134.34;4937304;29;20028;-77
2022/04/01 01:11:35;;;;;;;17.40;9.40;;;;;;;1.79;84.29;98123.00;4936960;29;20067;-77
2022/04/01 01:14:06;;;;;;;19.58;10.05;;;;;;;1.78;84.32;98132.44;4935864;29;20396;-76
2022/04/01 01:16:32;;;;;;;12.70;8.55;;;;;;;1.72;84.56;98132.63;4935639;29;20071;-77
2022/04/01 01:19:05;;;;;;;17.90;10.15;;;;;;;1.68;84.93;98124.19;4936743;29;20047;-76
2022/04/01 01:21:32;;;;;;;15.98;9.40;;;;;;;1.67;84.02;98109.72;4936919;29;20038;-76
2022/04/01 01:24:06;;;;;;;20.20;10.88;;;;;;;1.65;84.59;98105.53;4937078;29;20063;-76
2022/04/01 01:26:35;;;;;;;12.20;8.13;;;;;;;1.67;84.92;98127.66;4936603;29;20032;-76
2022/04/01 01:29:02;;;;;;;9.40;7.00;;;;;;;1.64;84.77;98114.09;4936894;29;20043;-76
2022/04/01 01:31:28;;;;;;;16.73;9.52;;;;;;;1.57;85.73;98108.38;4936712;29;20118;-76
2022/04/01 01:33:55;;;;;;;14.45;9.07;;;;;;;1.50;86.20;98110.28;4936790;29;20038;-76
2022/04/01 01:36:22;;;;;;;12.82;7.20;;;;;;;1.39;86.76;98097.03;4936692;29;20043;-76
2022/04/01 01:38:47;;;;;;;12.55;8.55;;;;;;;1.45;86.79;98119.88;4936597;29;20530;-76
2022/04/01 01:41:14;;;;;;;11.55;7.70;;;;;;;1.44;86.00;98110.53;4936645;29;20031;-76
2022/04/01 01:43:41;;;;;;;15.30;7.32;;;;;;;1.34;87.22;98104.00;4936467;29;20042;-76
2022/04/01 01:46:07;;;;;;;9.45;6.40;;;;;;;1.37;87.06;98105.66;4936540;29;20079;-77
2022/04/01 01:48:32;;;;;;;14.30;7.63;;;;;;;1.35;86.81;98102.28;4936241;29;20118;-77
2022/04/01 01:56:25;;;;;;;13.65;7.72;;;;;;;1.36;86.55;98097.13;4936622;29;20047;-77
2022/04/01 01:58:51;;;;;;;14.90;8.20;;;;;;;1.35;87.16;98100.59;4934788;29;20043;-76
2022/04/01 02:01:16;;;;;;;11.65;7.43;;;;;;;1.35;88.25;98104.84;4935151;29;20141;-77
2022/04/01 02:03:42;;;;;;;14.20;7.63;;;;;;;1.33;89.03;98096.38;4936283;29;20031;-77
2022/04/01 02:06:07;;;;;;;12.90;7.53;;;;;;;1.32;89.36;98099.84;4936264;29;20024;-77
2022/04/01 02:08:33;;;;;;;27.08;16.65;;;;;;;1.25;89.45;98089.78;4935924;29;20503;-77
2022/04/01 02:10:59;;;;;;;17.13;9.77;;;;;;;1.31;89.43;98095.63;4933344;29;20110;-77
2022/04/01 02:13:27;;;;;;;14.13;7.68;;;;;;;1.28;90.15;98091.41;4933591;29;20114;-77
2022/04/01 02:15:53;;;;;;;21.75;12.07;;;;;;;1.15;91.71;98083.28;4933184;28;20040;-77
2022/04/01 02:18:20;;;;;;;31.17;15.25;;;;;;;1.29;92.59;98099.94;4917388;29;20059;-76
2022/04/01 02:20:46;;;;;;;23.08;11.70;;;;;;;1.31;92.34;98103.31;4933246;29;20087;-77
2022/04/01 02:23:12;;;;;;;25.48;12.77;;;;;;;1.29;92.64;98102.50;4933503;29;20063;-77
2022/04/01 02:25:40;;;;;;;17.55;9.05;;;;;;;1.26;92.81;98100.88;4917254;29;20040;-77
2022/04/01 02:28:05;;;;;;;61.40;26.20;;;;;;;1.23;93.08;98099.25;4917482;29;20066;-76
2022/04/01 02:30:31;;;;;;;17.67;8.63;;;;;;;1.02;93.02;98068.38;4933249;29;20067;-76
2022/04/01 02:32:56;;;;;;;31.17;12.85;;;;;;;1.02;93.45;98083.78;4933058;29;20035;-77
2022/04/01 02:35:22;;;;;;;39.60;16.45;;;;;;;1.03;93.63;98085.44;4933210;29;20036;-77
2022/04/01 02:37:47;;;;;;;31.15;14.75;;;;;;;1.11;93.88;98093.72;4932956;29;20517;-77
2022/04/01 02:40:13;;;;;;;38.03;17.38;;;;;;;1.11;94.03;98103.97;4933179;29;20027;-77
2022/04/01 02:42:39;;;;;;;12.52;6.88;;;;;;;0.99;94.33;98080.41;4934720;29;20055;-76
2022/04/01 02:45:05;;;;;;;43.13;20.33;;;;;;;0.92;95.63;98086.59;4934112;29;20503;-76
2022/04/01 02:47:31;;;;;;;28.02;15.07;;;;;;;0.91;97.03;98107.19;4935534;29;20555;-77
2022/04/01 02:49:56;;;;;;;15.55;8.80;;;;;;;0.69;97.86;98084.81;4935245;29;20428;-76
2022/04/01 02:52:22;;;;;;;34.60;19.70;;;;;;;0.42;99.60;98081.41;4935277;29;20464;-76
2022/04/01 02:54:47;;;;;;;10.90;7.90;;;;;;;0.34;100.00;98087.59;4934752;29;20032;-77
2022/04/01 02:57:13;;;;;;;15.90;8.05;;;;;;;0.40;100.00;98110.47;4933993;29;20024;-76
2022/04/01 02:59:39;;;;;;;10.05;7.25;;;;;;;0.39;100.00;98107.09;4933955;29;20412;-76
2022/04/01 03:02:05;;;;;;;13.30;8.32;;;;;;;0.32;100.00;98099.63;4935131;29;20443;-76
2022/04/01 03:04:30;;;;;;;12.05;8.23;;;;;;;0.19;100.00;98083.81;4933749;29;20024;-77
2022/04/01 03:06:56;;;;;;;15.77;9.27;;;;;;;0.26;100.00;98098.09;4934840;29;20055;-76
2022/04/01 03:09:21;;;;;;;13.77;7.97;;;;;;;0.21;100.00;98107.63;4933688;29;20067;-77
2022/04/01 03:11:46;;;;;;;14.43;8.10;;;;;;;0.15;100.00;98108.66;4933365;29;20461;-76
2022/04/01 03:14:12;;;;;;;12.77;7.35;;;;;;;0.01;100.00;98092.88;4935138;29;20032;-76
2022/04/01 03:16:38;;;;;;;11.43;7.15;;;;;;;0.07;100.00;98105.47;4934860;29;20099;-76
2022/04/01 03:19:08;;;;;;;13.52;8.68;;;;;;;0.01;100.00;98112.50;4934820;29;20055;-77
2022/04/01 03:21:35;;;;;;;33.47;13.43;;;;;;;-0.09;100.00;98110.19;4933727;29;20035;-77
2022/04/01 03:24:02;;;;;;;11.38;7.68;;;;;;;-0.28;100.00;98091.97;4933277;29;20366;-77
2022/04/01 03:26:28;;;;;;;14.77;7.88;;;;;;;-0.22;100.00;98101.19;4933733;29;20550;-77
2022/04/01 03:28:54;;;;;;;13.35;7.70;;;;;;;-0.22;100.00;98102.91;4933442;29;20028;-76
2022/04/01 03:31:20;;;;;;;18.27;9.73;;;;;;;-0.21;100.00;98102.03;4934869;29;20052;-76
2022/04/01 03:33:45;;;;;;;12.85;7.90;;;;;;;-0.33;100.00;98091.25;4933428;29;20030;-77
2022/04/01 03:36:11;;;;;;;14.73;7.90;;;;;;;-0.35;100.00;98085.34;4933519;29;20038;-76
2022/04/01 03:38:38;;;;;;;13.85;7.53;;;;;;;-0.29;100.00;98103.09;4934643;29;20058;-76
2022/04/01 03:41:05;;;;;;;10.00;6.93;;;;;;;-0.39;100.00;98088.88;4934854;29;20114;-76
2022/04/01 03:43:34;;;;;;;16.30;7.50;;;;;;;-0.35;100.00;98094.75;4934857;29;20038;-76
2022/04/01 03:46:04;;;;;;;12.38;7.65;;;;;;;-0.28;100.00;98096.25;4934556;29;20031;-76
2022/04/01 03:48:38;;;;;;;13.23;8.45;;;;;;;-0.39;100.00;98080.34;4934690;29;20599;-76
2022/04/01 03:51:04;;;;;;;15.52;8.18;;;;;;;-0.41;100.00;98082.97;4934461;29;20050;-76
2022/04/01 03:53:32;;;;;;;32.47;15.55;;;;;;;-0.37;100.00;98104.19;4933249;29;20483;-77
2022/04/01 03:56:00;;;;;;;19.50;10.15;;;;;;;-0.48;100.00;98089.13;4933296;29;20969;-76
2022/04/01 03:58:28;;;;;;;13.18;7.75;;;;;;;-0.45;100.00;98101.84;4934653;29;20111;-76
2022/04/01 04:00:54;;;;;;;12.98;7.93;;;;;;;-0.46;100.00;98099.28;4934371;29;20494;-77
2022/04/01 04:03:21;;;;;;;13.20;7.68;;;;;;;-0.51;100.00;98091.75;4934411;29;20036;-76
2022/04/01 04:05:47;;;;;;;14.27;8.55;;;;;;;-0.57;100.00;98084.25;4934200;29;20028;-77
2022/04/01 04:08:17;;;;;;;12.95;8.15;;;;;;;-0.61;100.00;98080.09;4935695;29;20032;-76
2022/04/01 04:10:46;;;;;;;13.15;7.00;;;;;;;-0.50;100.00;98113.91;4938219;29;20024;-76
2022/04/01 04:13:13;;;;;;;11.40;7.32;;;;;;;-0.57;100.00;98102.16;4938327;29;20492;-76
2022/04/01 04:15:49;;;;;;;12.00;7.82;;;;;;;-0.52;100.00;98103.69;4938246;29;20369;-77
2022/04/01 04:18:16;;;;;;;17.00;8.60;;;;;;;-0.61;100.00;98095.44;4937859;29;20048;-76
2022/04/01 04:21:10;;;;;;;14.80;8.18;;;;;;;-0.76;100.00;98081.34;4936640;29;20028;-75
2022/04/01 04:23:47;;;;;;;12.32;8.82;;;;;;;-0.59;100.00;98109.00;4938166;29;20039;-76
2022/04/01 04:26:31;;;;;;;10.00;7.60;;;;;;;-0.64;100.00;98098.06;4938041;29;20031;-75
2022/04/01 04:29:08;;;;;;;13.15;8.65;;;;;;;-0.65;100.00;98109.19;4937746;29;20380;-77
2022/04/01 04:31:35;;;;;;;9.98;7.78;;;;;;;-0.66;100.00;98112.63;4937713;29;20034;-78
2022/04/01 04:34:04;;;;;;;19.38;8.02;;;;;;;-0.79;100.00;98087.38;4937498;29;20047;-80
2022/04/01 04:36:40;;;;;;;11.02;7.53;;;;;;;-0.74;100.00;98110.28;4936484;29;20361;-80
2022/04/01 04:39:15;;;;;;;17.55;9.20;;;;;;;-0.83;100.00;98101.13;4937690;29;20495;-82
2022/04/01 04:41:43;;;;;;;18.23;9.65;;;;;;;-0.84;100.00;98107.13;4937695;29;20559;-81
2022/04/01 04:44:10;;;;;;;19.90;11.05;;;;;;;-0.86;100.00;98097.81;4936498;29;20063;-80
2022/04/01 04:46:36;;;;;;;12.98;8.88;;;;;;;-0.78;100.00;98121.44;4936409;29;20424;-77
2022/04/01 04:49:02;;;;;;;18.63;9.98;;;;;;;-0.87;100.00;98108.91;4937388;29;20043;-80
2022/04/01 04:51:28;;;;;;;17.60;9.80;;;;;;;-0.79;100.00;98120.63;4937607;29;20024;-79
2022/04/01 04:53:57;;;;;;;13.07;8.70;;;;;;;-0.79;100.00;98122.34;4935954;28;20032;-79
2022/04/01 04:56:24;;;;;;;16.73;9.27;;;;;;;-0.89;100.00;98095.31;4936204;29;20498;-78
2022/04/01 04:58:53;;;;;;;15.35;8.98;;;;;;;-0.90;100.00;98103.88;4935998;29;20063;-78
2022/04/01 05:01:41;;;;;;;12.65;8.63;;;;;;;-0.82;100.00;98120.69;4936104;29;20621;-79
2022/04/01 05:04:39;;;;;;;13.18;8.38;;;;;;;-0.83;100.00;98124.13;4935736;29;20521;-79
2022/04/01 05:07:34;;;;;;;16.25;9.05;;;;;;;-1.04;100.00;98094.00;4937148;29;20026;-78
2022/04/01 05:10:07;;;;;;;12.95;8.75;;;;;;;-0.83;100.00;98128.41;4935748;29;20035;-78
2022/04/01 05:12:51;;;;;;;14.18;7.75;;;;;;;-0.82;100.00;98132.63;4934392;29;20046;-79
2022/04/01 05:15:26;;;;;;;15.23;8.20;;;;;;;-0.83;100.00;98124.13;4918874;29;20368;-80
2022/04/01 05:17:51;;;;;;;15.40;10.15;;;;;;;-0.88;100.00;98113.19;4933817;29;20052;-80
2022/04/01 05:20:24;;;;;;;15.07;9.00;;;;;;;-0.90;100.00;98108.97;4934845;29;20343;-80
2022/04/01 05:23:12;;;;;;;14.82;10.07;;;;;;;-0.79;100.00;98123.16;4918435;29;20155;-80
2022/04/01 05:25:54;;;;;;;14.52;9.10;;;;;;;-0.73;100.00;98119.59;4918648;29;20035;-81
2022/04/01 05:28:31;;;;;;;17.67;10.48;;;;;;;-0.73;100.00;98116.22;4918554;29;20039;-80
2022/04/01 05:31:30;;;;;;;14.00;9.55;;;;;;;-0.70;100.00;98129.78;4918097;29;20038;-83
2022/04/01 05:34:09;;;;;;;13.68;9.55;;;;;;;-0.76;100.00;98120.53;4899228;29;20047;-76
2022/04/01 05:36:36;;;;;;;14.88;8.20;;;;;;;-0.61;100.00;98126.13;4915468;29;20421;-78
2022/04/01 05:39:03;;;;;;;18.00;9.65;;;;;;;-0.56;100.00;98129.41;4915024;29;20048;-77
2022/04/01 05:41:28;;;;;;;16.55;11.10;;;;;;;-0.56;100.00;98117.44;4915089;29;20036;-78
2022/04/01 05:43:57;;;;;;;16.45;11.13;;;;;;;-0.51;100.00;98130.97;4927271;29;20106;-75
2022/04/01 05:46:25;;;;;;;19.08;13.50;;;;;;;-0.58;100.00;98121.78;4934000;29;20031;-75
2022/04/01 05:48:53;;;;;;;17.98;11.70;;;;;;;-0.48;100.00;98129.19;4933832;29;20028;-74
2022/04/01 05:51:19;;;;;;;18.30;11.85;;;;;;;-0.54;100.00;98112.31;4933957;29;20503;-74
2022/04/01 05:53:46;;;;;;;13.85;10.10;;;;;;;-0.43;100.00;98133.31;4934049;29;20131;-75
2022/04/01 05:56:14;;;;;;;31.60;21.08;;;;;;;-0.48;100.00;98124.09;4933884;29;20035;-75
2022/04/01 05:58:40;;;;;;;20.83;13.57;;;;;;;-0.47;100.00;98121.47;4933870;29;20134;-75
2022/04/01 06:01:19;;;;;;;16.30;12.05;;;;;;;-0.42;100.00;98132.44;4933707;29;20043;-76
2022/04/01 06:03:59;;;;;;;20.30;13.63;;;;;;;-0.55;100.00;98125.97;4917778;29;20043;-76
2022/04/01 06:06:39;;;;;;;27.25;16.08;;;;;;;-0.55;100.00;98134.50;4917771;29;20035;-76
2022/04/01 06:09:17;;;;;;;38.60;23.13;;;;;;;-0.59;100.00;98139.69;4933560;29;20520;-77
2022/04/01 06:12:02;;;;;;;55.33;28.25;;;;;;;-0.61;100.00;98151.69;4935529;29;20083;-77
2022/04/01 06:15:14;;;;;;;39.28;26.58;;;;;;;-0.63;100.00;98154.31;4934737;29;20468;-76
2022/04/01 06:17:44;;;;;;;;;;;;;;;-0.67;100.00;98156.97;4895978;29;20049;-77
2022/04/01 06:20:13;;;;;;;26.27;17.88;;;;;;;-0.69;100.00;98145.94;4895476;29;19916;-77
2022/04/01 06:22:49;;;;;;;30.33;18.60;;;;;;;-0.70;100.00;98147.66;4895612;29;20036;-77
2022/04/01 06:25:20;;;;;;;21.55;15.40;;;;;;;-0.74;100.00;98142.66;4861087;29;20078;-77
2022/04/01 06:27:48;;;;;;;21.02;14.25;;;;;;;-0.69;100.00;98145.94;4876860;29;20037;-77
2022/04/01 06:30:21;;;;;;;24.45;16.73;;;;;;;-0.64;100.00;98160.28;4876256;29;20080;-76
2022/04/01 06:33:12;;;;;;;19.38;13.27;;;;;;;-0.73;100.00;98150.28;4861121;29;20465;-77
2022/04/01 06:35:49;;;;;;;23.23;13.80;;;;;;;-0.78;100.00;98159.78;4839577;29;20064;-76
2022/04/01 06:38:33;;;;;;;23.70;12.90;;;;;;;-0.71;100.00;98160.50;4839843;29;20041;-76
2022/04/01 06:41:01;;;;;;;21.10;13.82;;;;;;;-0.70;100.00;98167.28;4839485;29;20049;-76
2022/04/01 06:43:27;;;;;;;46.17;22.88;;;;;;;-0.74;100.00;98166.50;4839595;29;20061;-76
2022/04/01 06:45:53;;;;;;;25.88;15.77;;;;;;;-0.70;100.00;98165.56;4839337;29;20445;-76
2022/04/01 06:48:19;;;;;;;22.05;14.38;;;;;;;-0.71;100.00;98163.06;4839750;29;20069;-77
2022/04/01 06:50:49;;;;;;;15.23;10.20;;;;;;;-0.72;100.00;98163.91;4839208;29;20073;-77
2022/04/01 06:53:18;;;;;;;17.65;12.18;;;;;;;-0.86;100.00;98149.75;4839377;29;20045;-77
2022/04/01 06:55:45;;;;;;;28.70;15.38;;;;;;;-0.75;100.00;98162.28;4868130;29;20041;-77
2022/04/01 06:58:11;;;;;;;34.70;19.77;;;;;;;-0.82;100.00;98153.91;4893606;29;20067;-77
2022/04/01 07:00:43;;;;;;;43.45;26.35;;;;;;;-0.73;100.00;98170.75;4893373;29;20174;-77
2022/04/01 07:03:09;;;;;;;43.95;22.63;;;;;;;-0.69;100.00;98158.72;4893676;29;20040;-77
2022/04/01 07:05:35;;;;;;;36.70;19.55;;;;;;;-0.67;100.00;98152.72;4896107;29;20037;-77
2022/04/01 07:08:03;;;;;;;29.02;17.38;;;;;;;-0.62;100.00;98155.16;4921386;29;20082;-77
2022/04/01 07:10:28;;;;;;;35.65;18.50;;;;;;;-0.62;100.00;98148.31;4933203;29;20042;-77
2022/04/01 07:12:53;;;;;;;26.98;14.75;;;;;;;-0.51;100.00;98150.56;4934551;29;20050;-77
2022/04/01 07:15:19;;;;;;;26.23;16.15;;;;;;;-0.44;100.00;98153.81;4934610;29;20510;-77
2022/04/01 07:17:45;;;;;;;20.20;13.35;;;;;;;-0.49;100.00;98145.44;4970454;28;20122;-77
2022/04/01 07:20:12;;;;;;;26.65;15.77;;;;;;;-0.36;100.00;98162.13;4970414;28;20050;-77
2022/04/01 07:22:39;;;;;;;23.02;16.48;;;;;;;-0.39;100.00;98139.19;4954707;28;20400;-77
2022/04/01 07:25:05;;;;;;;29.73;18.80;;;;;;;-0.28;100.00;98157.66;4970595;28;20058;-77
2022/04/01 07:27:30;;;;;;;54.35;27.20;;;;;;;-0.26;100.00;98155.88;4954666;28;20055;-78
2022/04/01 07:29:56;;;;;;;38.85;22.90;;;;;;;-0.26;100.00;98159.28;4970516;28;20051;-78
2022/04/01 07:32:32;;;;;;;29.13;14.48;;;;;;;-0.18;100.00;98153.13;4954402;28;20031;-78
2022/04/01 07:34:59;;;;;;;17.88;12.88;;;;;;;-0.18;100.00;98145.44;4968952;28;20085;-79
2022/04/01 07:37:25;;;;;;;20.40;13.15;;;;;;;-0.14;100.00;98155.53;4961141;28;20031;-78
2022/04/01 07:39:54;;;;;;;17.73;11.82;;;;;;;-0.14;100.00;98164.94;4956483;28;20530;-79
2022/04/01 07:42:21;;;;;;;22.52;13.13;;;;;;;-0.20;100.00;98162.56;4916316;29;20119;-78
2022/04/01 07:44:50;;;;;;;31.33;16.02;;;;;;;-0.29;100.00;98155.97;4932194;29;20509;-79
2022/04/01 07:47:18;;;;;;;32.03;16.10;;;;;;;-0.22;100.00;98162.59;4932471;29;20534;-79
2022/04/01 07:49:44;;;;;;;30.50;17.33;;;;;;;-0.20;100.00;98163.41;4916819;29;20051;-79
2022/04/01 07:52:11;;;;;;;18.63;12.85;;;;;;;-0.14;100.00;98176.03;4916442;29;20123;-79
2022/04/01 07:54:38;;;;;;;21.33;12.45;;;;;;;-0.26;100.00;98168.66;4911418;29;20071;-80
2022/04/01 07:57:04;;;;;;;26.38;15.43;;;;;;;-0.20;100.00;98173.63;4912794;29;20028;-80
2022/04/01 07:59:30;;;;;;;21.67;13.60;;;;;;;-0.30;100.00;98161.97;4897117;29;20036;-80
2022/04/01 08:01:56;;;;;;;17.58;11.80;;;;;;;-0.26;100.00;98172.06;4896933;29;20032;-80
2022/04/01 08:04:22;;;;;;;21.73;13.50;;;;;;;-0.21;100.00;98187.31;4912754;29;20051;-81
2022/04/01 08:06:48;;;;;;;19.60;12.13;;;;;;;-0.15;100.00;98193.97;4896912;29;20477;-81
2022/04/01 08:09:16;;;;;;;24.58;12.35;;;;;;;-0.13;100.00;98200.72;4912372;29;20504;-80
2022/04/01 08:11:42;;;;;;;27.73;15.98;;;;;;;-0.13;100.00;98193.03;4897065;29;20099;-80
2022/04/01 08:14:07;;;;;;;22.88;14.23;;;;;;;-0.17;100.00;98178.69;4912740;29;20080;-80
2022/04/01 08:16:33;;;;;;;28.08;16.40;;;;;;;0.04;100.00;98200.25;4928540;29;20044;-80
2022/04/01 08:18:59;;;;;;;19.70;13.60;;;;;;;0.06;100.00;98180.59;4915911;29;20087;-80
2022/04/01 08:21:24;;;;;;;20.13;12.65;;;;;;;0.15;100.00;98199.97;4915808;29;20023;-80
2022/04/01 08:23:50;;;;;;;22.30;13.10;;;;;;;0.10;100.00;98191.59;4932274;29;20042;-80
2022/04/01 08:26:15;;;;;;;15.20;11.02;;;;;;;0.09;100.00;98182.25;4932408;29;20036;-80
2022/04/01 08:28:41;;;;;;;16.52;10.88;;;;;;;0.16;100.00;98189.69;4931707;29;20600;-75
2022/04/01 08:31:07;;;;;;;25.15;13.15;;;;;;;0.31;100.00;98205.53;4931832;29;20032;-79
2022/04/01 08:33:33;;;;;;;16.95;12.70;;;;;;;0.40;100.00;98216.34;4932130;29;20466;-79
2022/04/01 08:35:58;;;;;;;22.95;13.75;;;;;;;0.57;100.00;98220.97;4932282;29;20067;-79
2022/04/01 08:38:24;;;;;;;33.85;19.73;;;;;;;0.56;100.00;98213.34;4916277;29;20059;-79
2022/04/01 08:40:49;;;;;;;20.70;14.52;;;;;;;0.55;100.00;98216.75;4919188;29;20044;-78
2022/04/01 08:43:45;;;;;;;22.38;10.35;;;;;;;0.47;100.00;98220.41;4913937;29;20036;-79
2022/04/01 08:46:12;;;;;;;19.77;11.10;;;;;;;0.36;100.00;98201.94;4875154;29;20033;-78
2022/04/01 08:48:38;;;;;;;14.38;9.77;;;;;;;0.57;100.00;98220.13;4859900;29;20573;-78
2022/04/01 08:51:07;;;;;;;19.88;11.30;;;;;;;0.59;100.00;98214.09;4859323;29;20041;-79
2022/04/01 08:53:37;;;;;;;15.55;10.98;;;;;;;0.63;100.00;98218.25;4876433;29;20073;-82
2022/04/01 08:56:04;;;;;;;15.00;8.87;;;;;;;0.58;100.00;98214.94;4878315;29;20076;-80
2022/04/01 08:58:29;;;;;;;15.50;8.90;;;;;;;0.58;100.00;98201.31;4879452;29;20073;-80
2022/04/01 09:00:57;;;;;;;16.40;11.25;;;;;;;0.72;100.00;98217.13;4878892;29;20048;-81
2022/04/01 09:03:23;;;;;;;19.40;11.43;;;;;;;0.92;100.00;98219.91;4878682;29;20075;-79
2022/04/01 09:05:54;;;;;;;24.10;13.45;;;;;;;0.88;100.00;98202.94;4878993;29;20040;-80
2022/04/01 09:08:27;;;;;;;13.38;9.32;;;;;;;0.92;100.00;98214.78;4878302;29;20037;-80
2022/04/01 09:11:03;;;;;;;15.27;9.48;;;;;;;0.91;100.00;98228.47;4862747;29;20041;-80
2022/04/01 09:13:45;;;;;;;16.42;8.77;;;;;;;0.80;100.00;98220.31;4863224;29;20040;-79
2022/04/01 09:16:32;;;;;;;22.45;9.23;;;;;;;0.72;100.00;98235.91;4877927;29;20041;-80
2022/04/01 09:19:02;;;;;;;20.65;10.52;;;;;;;0.59;100.00;98216.66;4877726;29;20049;-80
2022/04/01 09:21:39;;;;;;;19.25;11.57;;;;;;;0.72;100.00;98230.78;4864242;29;20066;-81
2022/04/01 09:24:06;;;;;;;12.10;7.97;;;;;;;0.56;100.00;98211.59;4916584;29;20036;-80
2022/04/01 09:26:32;;;;;;;15.45;8.65;;;;;;;0.71;100.00;98234.19;4916601;29;20127;-80
2022/04/01 09:28:59;;;;;;;15.35;9.15;;;;;;;0.67;100.00;98232.59;4916416;29;20032;-80
2022/04/01 09:31:29;;;;;;;41.63;16.25;;;;;;;0.57;100.00;98218.41;4918434;29;20065;-79
2022/04/01 09:33:55;;;;;;;18.90;11.43;;;;;;;0.62;100.00;98218.25;4918511;29;20036;-80
2022/04/01 09:36:33;;;;;;;17.95;10.55;;;;;;;0.77;100.00;98233.19;4916396;29;20028;-80
2022/04/01 09:39:01;;;;;;;15.80;8.57;;;;;;;0.82;100.00;98240.75;4917665;29;20071;-80
2022/04/01 09:41:39;;;;;;;16.52;9.68;;;;;;;0.90;100.00;98243.91;4918585;29;20047;-80
2022/04/01 09:44:09;;;;;;;18.80;9.27;;;;;;;0.89;100.00;98237.13;4916843;29;20043;-80
2022/04/01 09:46:40;;;;;;;14.93;9.45;;;;;;;0.93;100.00;98241.28;4916547;29;20028;-80
2022/04/01 09:49:06;;;;;;;20.42;9.88;;;;;;;1.02;100.00;98245.28;4916588;29;20036;-80
2022/04/01 09:51:33;;;;;;;17.85;9.70;;;;;;;1.04;100.00;98235.81;4916036;29;20547;-79
2022/04/01 09:54:02;;;;;;;22.38;10.55;;;;;;;1.07;100.00;98235.72;4916481;29;20548;-80
2022/04/01 09:56:38;;;;;;;13.32;8.52;;;;;;;1.15;100.00;98252.53;4917493;29;20568;-76
2022/04/01 09:59:05;;;;;;;16.40;11.48;;;;;;;1.19;100.00;98246.44;4916954;29;20623;-75
2022/04/01 10:01:33;;;;;;;42.83;16.08;;;;;;;1.19;100.00;98248.16;4931298;29;20023;-76
2022/04/01 10:03:58;;;;;;;16.58;9.60;;;;;;;1.12;100.00;98246.66;4950473;28;20035;-77
2022/04/01 10:06:24;;;;;;;42.42;14.85;;;;;;;1.00;100.00;98220.50;4954091;28;20027;-78
2022/04/01 10:08:51;;;;;;;26.65;13.07;;;;;;;1.07;100.00;98239.13;4955245;28;20034;-76
2022/04/01 10:11:19;;;;;;;25.20;12.38;;;;;;;1.12;100.00;98237.25;4954926;28;20110;-76
2022/04/01 10:13:46;;;;;;;28.85;13.63;;;;;;;1.11;100.00;98229.59;4955290;28;20027;-77
2022/04/01 10:16:13;;;;;;;23.05;11.65;;;;;;;1.15;100.00;98234.59;4955023;28;20027;-76
2022/04/01 10:18:41;;;;;;;18.85;11.07;;;;;;;1.12;100.00;98211.59;4955255;28;20134;-76
2022/04/01 10:21:07;;;;;;;28.77;13.57;;;;;;;1.18;100.00;98229.38;4954977;28;20232;-76
2022/04/01 10:23:39;;;;;;;28.27;12.55;;;;;;;1.20;100.00;98229.31;4954969;28;20031;-85
2022/04/01 10:26:08;;;;;;;29.77;15.65;;;;;;;1.17;100.00;98225.09;4953384;28;20031;-81
2022/04/01 10:28:34;;;;;;;23.47;10.83;;;;;;;1.20;100.00;98221.63;4954861;28;20027;-76
2022/04/01 10:31:02;;;;;;;17.55;10.23;;;;;;;1.34;100.00;98251.94;4954528;28;20031;-77
2022/04/01 10:33:33;;;;;;;24.98;10.63;;;;;;;1.12;100.00;98211.59;4953208;28;20031;-76
2022/04/01 10:35:59;;;;;;;17.40;10.10;;;;;;;1.17;100.00;98219.97;4954609;28;20392;-76
2022/04/01 10:38:28;;;;;;;19.50;11.20;;;;;;;1.28;100.00;98237.59;4954354;28;20024;-76
2022/04/01 10:41:05;;;;;;;29.23;13.85;;;;;;;1.29;100.00;98244.41;4953371;28;20031;-79
2022/04/01 10:43:31;;;;;;;23.85;11.23;;;;;;;1.35;100.00;98238.22;4954881;28;20130;-79
2022/04/01 10:46:16;;;;;;;24.10;10.80;;;;;;;1.40;100.00;98241.50;4954433;28;20523;-80
2022/04/01 10:52:23;;;;;;;23.48;11.93;;;;;;;1.46;100.00;98241.31;4955179;29;20434;-81
2022/04/01 10:55:08;;;;;;;62.88;35.28;;;;;;;1.41;100.00;98215.81;4879350;29;20068;-81
2022/04/01 10:57:43;;;;;;;26.20;13.00;;;;;;;1.48;100.00;98222.41;4879508;29;20025;-82
2022/04/01 11:00:15;;;;;;;19.85;11.45;;;;;;;1.48;100.00;98207.03;4879274;29;20032;-79
2022/04/01 11:02:42;;;;;;;67.63;28.13;;;;;;;1.72;100.00;98235.31;4894880;29;20477;-78
2022/04/01 11:05:31;;;;;;;60.83;20.95;;;;;;;1.76;100.00;98231.75;4878885;29;20127;-78
2022/04/01 11:08:20;;;;;;;85.55;29.92;;;;;;;1.85;100.00;98240.88;4879039;29;20493;-78
2022/04/01 11:11:12;;;;;;;42.45;18.52;;;;;;;1.91;99.92;98235.53;4894317;29;20039;-79
2022/04/01 11:13:38;;;;;;;56.03;22.60;;;;;;;1.97;99.68;98236.16;4879127;29;20028;-81
2022/04/01 11:16:25;;;;;;;23.42;11.93;;;;;;;2.06;97.39;98239.28;4894359;29;20119;-79
2022/04/01 11:19:17;;;;;;;20.98;10.25;;;;;;;2.11;96.37;98229.72;4894432;29;20139;-79
2022/04/01 11:21:45;;;;;;;36.13;14.77;;;;;;;2.13;95.33;98233.88;4839360;29;20069;-80
2022/04/01 11:24:41;;;;;;;30.45;12.45;;;;;;;2.17;95.84;98239.75;4823588;29;20426;-81
2022/04/01 11:27:22;;;;;;;39.20;17.00;;;;;;;2.24;94.92;98238.66;4820942;29;20065;-81
2022/04/01 11:30:12;;;;;;;34.78;14.10;;;;;;;2.34;93.76;98252.84;4821077;29;20034;-81
2022/04/01 11:32:38;;;;;;;28.02;14.18;;;;;;;2.38;94.00;98238.16;4839468;29;20140;-81
2022/04/01 11:35:05;;;;;;;35.55;16.02;;;;;;;2.37;93.42;98232.19;4839102;29;20559;-81
2022/04/01 11:37:42;;;;;;;21.50;10.65;;;;;;;2.39;91.57;98221.84;4823786;29;20079;-81
2022/04/01 11:40:11;;;;;;;24.67;9.85;;;;;;;2.39;88.82;98219.28;4838603;29;20458;-79